createdAt,value
2022-10-18T00:01:08.456Z,3.91
2022-10-18T00:03:36.923Z,3.92
2022-10-18T00:06:04.999Z,3.94
2022-10-18T00:08:31.777Z,3.93
2022-10-18T00:10:59.115Z,3.87
2022-10-18T00:13:26.377Z,3.87
2022-10-18T00:15:57.686Z,3.82
2022-10-18T00:18:25.088Z,3.83
2022-10-18T00:21:22.576Z,3.79
2022-10-18T00:23:50.094Z,3.77
2022-10-18T00:26:19.807Z,3.71
2022-10-18T00:28:47.684Z,3.69
2022-10-18T00:31:16.338Z,3.74
2022-10-18T00:33:45.314Z,3.68
2022-10-18T00:36:14.242Z,3.58
2022-10-18T00:38:42.156Z,3.60
2022-10-18T00:41:11.630Z,3.66
2022-10-18T00:44:10.927Z,3.62
2022-10-18T00:46:43.917Z,3.57
2022-10-18T00:49:23.835Z,3.61
2022-10-18T00:52:17.660Z,3.54
2022-10-18T00:54:46.544Z,3.59
2022-10-18T00:57:14.309Z,3.61
2022-10-18T00:59:43.329Z,3.58
2022-10-18T01:02:11.010Z,3.56
2022-10-18T01:04:38.096Z,3.56
2022-10-18T01:07:23.847Z,3.51
2022-10-18T01:10:21.604Z,3.50
2022-10-18T01:13:31.221Z,3.46
2022-10-18T01:16:29.071Z,3.40
2022-10-18T01:19:07.628Z,3.39
2022-10-18T01:21:48.307Z,3.37
2022-10-18T01:24:33.317Z,3.40
2022-10-18T01:27:16.610Z,3.39
2022-10-18T01:30:18.824Z,3.37
2022-10-18T01:32:56.181Z,3.34
2022-10-18T01:35:29.783Z,3.33
2022-10-18T01:38:01.330Z,3.30
2022-10-18T01:40:29.613Z,3.31
2022-10-18T01:42:57.075Z,3.30
2022-10-18T01:45:26.377Z,3.22
2022-10-18T01:47:55.600Z,3.21
2022-10-18T01:50:34.375Z,3.25
2022-10-18T01:53:01.918Z,3.22
2022-10-18T01:55:42.834Z,3.21
2022-10-18T01:58:31.764Z,3.21
2022-10-18T02:03:48.250Z,3.16
2022-10-18T02:06:29.275Z,3.15
2022-10-18T02:09:23.386Z,3.11
2022-10-18T02:11:54.824Z,3.12
2022-10-18T02:14:25.983Z,3.14
2022-10-18T02:16:58.420Z,3.08
2022-10-18T02:19:33.584Z,3.05
2022-10-18T02:22:01.883Z,2.99
2022-10-18T02:24:51.832Z,3.00
2022-10-18T02:27:19.096Z,2.97
2022-10-18T02:29:47.295Z,3.00
2022-10-18T02:32:35.069Z,3.01
2022-10-18T02:35:06.615Z,3.00
2022-10-18T02:37:38.380Z,2.96
2022-10-18T02:40:07.744Z,2.95
2022-10-18T02:42:47.723Z,2.96
2022-10-18T02:45:15.424Z,2.97
2022-10-18T02:47:43.127Z,2.93
2022-10-18T02:50:10.679Z,2.93
2022-10-18T02:52:38.037Z,2.92
2022-10-18T02:55:07.072Z,2.91
2022-10-18T02:57:34.382Z,2.91
2022-10-18T03:00:01.665Z,2.90
2022-10-18T03:02:28.951Z,2.89
2022-10-18T03:07:40.707Z,2.88
2022-10-18T03:10:08.123Z,2.86
2022-10-18T03:12:35.377Z,2.86
2022-10-18T03:15:02.608Z,2.78
2022-10-18T03:17:30.106Z,2.81
2022-10-18T03:19:57.322Z,2.80
2022-10-18T03:22:25.517Z,2.77
2022-10-18T03:24:52.771Z,2.76
2022-10-18T03:27:20.176Z,2.78
2022-10-18T03:29:47.094Z,2.76
2022-10-18T03:32:14.203Z,2.71
2022-10-18T03:34:41.121Z,2.70
2022-10-18T03:37:08.295Z,2.68
2022-10-18T03:39:35.597Z,2.70
2022-10-18T03:42:03.037Z,2.68
2022-10-18T03:44:29.992Z,2.62
2022-10-18T03:46:57.313Z,2.62
2022-10-18T03:49:25.087Z,2.63
2022-10-18T03:51:52.127Z,2.56
2022-10-18T03:54:19.272Z,2.55
2022-10-18T03:56:46.209Z,2.57
2022-10-18T03:59:13.879Z,2.53
2022-10-18T04:01:41.073Z,2.59
2022-10-18T04:04:08.081Z,2.57
2022-10-18T04:06:35.463Z,2.54
2022-10-18T04:09:04.274Z,2.51
2022-10-18T04:11:33.798Z,2.47
2022-10-18T04:14:00.697Z,2.42
2022-10-18T04:16:27.760Z,2.47
2022-10-18T04:18:55.104Z,2.45
2022-10-18T04:21:22.213Z,2.41
2022-10-18T04:23:50.414Z,2.46
2022-10-18T04:26:17.936Z,2.47
2022-10-18T04:28:45.336Z,2.39
2022-10-18T04:31:12.479Z,2.39
2022-10-18T04:33:39.726Z,2.39
2022-10-18T04:36:07.197Z,2.40
2022-10-18T04:38:34.491Z,2.37
2022-10-18T04:41:01.783Z,2.37
2022-10-18T04:43:28.806Z,2.37
2022-10-18T04:45:56.310Z,2.34
2022-10-18T04:48:23.515Z,2.35
2022-10-18T04:50:51.307Z,2.39
2022-10-18T04:53:19.108Z,2.36
2022-10-18T04:55:50.153Z,2.40
2022-10-18T04:58:21.227Z,2.39
2022-10-18T05:00:48.116Z,2.40
2022-10-18T05:03:15.597Z,2.40
2022-10-18T05:06:00.971Z,2.36
2022-10-18T05:08:29.980Z,2.40
2022-10-18T05:10:57.076Z,2.40
2022-10-18T05:13:24.216Z,2.38
2022-10-18T05:15:51.116Z,2.30
2022-10-18T05:18:18.154Z,2.36
2022-10-18T05:20:45.128Z,2.41
2022-10-18T05:23:12.268Z,2.48
2022-10-18T05:25:40.159Z,2.49
2022-10-18T05:28:11.111Z,2.48
2022-10-18T05:30:43.148Z,2.52
2022-10-18T05:33:10.417Z,2.56
2022-10-18T05:35:37.916Z,2.60
2022-10-18T05:38:06.405Z,2.66
2022-10-18T05:40:34.342Z,2.61
2022-10-18T05:43:01.610Z,2.65
2022-10-18T05:45:28.539Z,2.72
2022-10-18T05:47:55.557Z,2.73
2022-10-18T05:50:22.603Z,2.80
2022-10-18T05:52:49.724Z,2.86
2022-10-18T05:55:16.656Z,2.94
2022-10-18T05:57:43.607Z,2.98
2022-10-18T06:00:11.721Z,3.08
2022-10-18T06:02:38.599Z,3.13
2022-10-18T06:05:06.180Z,3.14
2022-10-18T06:07:33.405Z,3.27
2022-10-18T06:10:00.803Z,3.41
2022-10-18T06:12:28.282Z,3.62
2022-10-18T06:14:55.365Z,3.84
2022-10-18T06:17:22.636Z,4.16
2022-10-18T06:19:49.536Z,4.53
2022-10-18T06:22:16.844Z,4.83
2022-10-18T06:24:43.816Z,5.15
2022-10-18T06:27:11.210Z,5.44
2022-10-18T06:29:41.191Z,5.75
2022-10-18T06:32:08.866Z,6.07
2022-10-18T06:34:36.046Z,6.38
2022-10-18T06:37:03.331Z,6.76
2022-10-18T06:39:30.341Z,7.09
2022-10-18T06:41:57.594Z,7.40
2022-10-18T06:44:24.585Z,7.74
2022-10-18T06:46:54.107Z,8.02
2022-10-18T06:49:21.188Z,8.27
2022-10-18T06:51:48.388Z,8.49
2022-10-18T06:54:18.495Z,8.80
2022-10-18T06:56:46.344Z,9.13
2022-10-18T06:59:13.260Z,9.42
2022-10-18T07:01:40.492Z,9.63
2022-10-18T07:04:07.609Z,9.86
2022-10-18T07:06:34.519Z,10.12
2022-10-18T07:09:03.229Z,10.32
2022-10-18T07:11:30.170Z,10.58
2022-10-18T07:14:05.090Z,10.85
2022-10-18T07:16:33.738Z,11.13
2022-10-18T07:19:00.655Z,11.32
2022-10-18T07:21:28.443Z,11.50
2022-10-18T07:23:56.612Z,11.65
2022-10-18T07:26:29.914Z,11.82
2022-10-18T07:29:05.133Z,12.12
2022-10-18T07:31:33.558Z,12.39
2022-10-18T07:34:00.674Z,12.59
2022-10-18T07:36:27.661Z,12.85
2022-10-18T07:38:55.385Z,13.07
2022-10-18T07:41:23.507Z,13.31
2022-10-18T07:43:52.158Z,13.53
2022-10-18T07:46:21.663Z,13.80
2022-10-18T07:48:49.495Z,13.94
2022-10-18T07:51:16.838Z,14.25
2022-10-18T07:53:43.854Z,14.45
2022-10-18T07:56:21.217Z,14.64
2022-10-18T07:58:53.973Z,14.84
2022-10-18T08:01:22.632Z,15.02
2022-10-18T08:03:50.636Z,15.16
2022-10-18T08:06:19.663Z,15.32
2022-10-18T08:08:47.200Z,15.51
2022-10-18T08:11:17.303Z,15.62
2022-10-18T08:13:44.691Z,15.74
2022-10-18T08:16:14.451Z,15.94
2022-10-18T08:18:41.778Z,16.13
2022-10-18T08:21:11.012Z,16.24
2022-10-18T08:23:38.733Z,16.32
2022-10-18T08:26:08.903Z,16.47
2022-10-18T08:28:37.058Z,16.64
2022-10-18T08:31:06.889Z,16.79
2022-10-18T08:33:36.096Z,16.89
2022-10-18T08:36:06.437Z,16.93
2022-10-18T08:38:38.455Z,16.84
2022-10-18T08:41:39.728Z,16.95
2022-10-18T08:44:10.537Z,17.08
2022-10-18T08:46:42.643Z,17.18
2022-10-18T08:49:19.996Z,17.28
2022-10-18T08:51:49.572Z,17.33
2022-10-18T08:54:29.757Z,17.29
2022-10-18T08:57:02.200Z,17.34
2022-10-18T08:59:37.074Z,17.49
2022-10-18T09:02:29.154Z,17.43
2022-10-18T09:05:05.199Z,17.51
2022-10-18T09:08:00.548Z,17.56
2022-10-18T09:10:54.061Z,17.69
2022-10-18T09:13:41.426Z,17.82
2022-10-18T09:16:19.282Z,17.83
2022-10-18T09:18:59.999Z,17.85
2022-10-18T09:21:27.409Z,17.82
2022-10-18T09:24:30.284Z,17.85
2022-10-18T09:27:04.758Z,17.86
2022-10-18T09:29:48.287Z,18.01
2022-10-18T09:32:37.018Z,18.05
2022-10-18T09:35:19.102Z,18.13
2022-10-18T09:37:47.894Z,18.10
2022-10-18T09:40:18.058Z,18.13
2022-10-18T09:42:56.190Z,18.19
2022-10-18T09:45:40.430Z,18.17
2022-10-18T09:48:27.398Z,18.02
2022-10-18T09:51:08.714Z,18.06
2022-10-18T09:53:54.461Z,18.24
2022-10-18T09:56:28.426Z,18.31
2022-10-18T09:58:55.595Z,18.30
2022-10-18T10:01:26.500Z,18.35
2022-10-18T10:03:54.145Z,18.31
2022-10-18T10:06:30.812Z,18.44
2022-10-18T10:09:01.530Z,18.59
2022-10-18T10:11:45.947Z,18.48
2022-10-18T10:14:29.686Z,18.42
2022-10-18T10:17:02.794Z,18.42
2022-10-18T10:19:40.178Z,18.45
2022-10-18T10:22:13.438Z,18.47
2022-10-18T10:24:49.287Z,18.45
2022-10-18T10:27:21.973Z,18.55
2022-10-18T10:29:54.006Z,18.50
2022-10-18T10:32:23.360Z,18.51
2022-10-18T10:34:51.188Z,18.58
2022-10-18T10:37:36.999Z,18.55
2022-10-18T10:40:19.897Z,18.49
2022-10-18T10:43:12.927Z,18.40
2022-10-18T10:45:58.028Z,18.55
2022-10-18T10:48:29.930Z,18.42
2022-10-18T10:51:11.249Z,18.50
2022-10-18T10:53:59.669Z,18.66
2022-10-18T10:56:29.991Z,18.64
2022-10-18T10:59:03.545Z,18.62
2022-10-18T11:01:33.839Z,18.73
2022-10-18T11:04:05.543Z,18.80
2022-10-18T11:06:35.408Z,18.85
2022-10-18T11:09:06.556Z,18.92
2022-10-18T11:11:46.787Z,19.02
2022-10-18T11:14:27.940Z,19.04
2022-10-18T11:17:13.742Z,19.12
2022-10-18T11:20:01.775Z,19.19
2022-10-18T11:22:40.509Z,19.34
2022-10-18T11:25:14.517Z,19.39
2022-10-18T11:27:57.232Z,19.21
2022-10-18T11:30:45.368Z,19.04
2022-10-18T11:33:56.297Z,19.12
2022-10-18T11:37:22.519Z,19.20
2022-10-18T11:40:04.338Z,19.33
2022-10-18T11:42:41.374Z,19.41
2022-10-18T11:45:11.398Z,19.23
2022-10-18T11:47:55.699Z,19.09
2022-10-18T11:50:51.829Z,19.17
2022-10-18T11:53:41.762Z,19.20
2022-10-18T11:56:25.939Z,19.24
2022-10-18T11:59:20.485Z,19.33
2022-10-18T12:01:50.338Z,19.44
2022-10-18T12:04:53.076Z,19.46
2022-10-18T12:07:36.715Z,19.36
2022-10-18T12:10:07.240Z,19.34
2022-10-18T12:12:46.210Z,19.38
2022-10-18T12:15:19.694Z,19.45
2022-10-18T12:18:10.687Z,19.38
2022-10-18T12:20:46.177Z,19.39
2022-10-18T12:23:26.498Z,19.50
2022-10-18T12:25:57.553Z,19.55
2022-10-18T12:28:43.037Z,19.45
2022-10-18T12:31:34.592Z,19.34
2022-10-18T12:34:15.834Z,19.33
2022-10-18T12:36:55.951Z,19.34
2022-10-18T12:39:37.682Z,19.31
2022-10-18T12:42:20.945Z,19.27
2022-10-18T12:44:48.625Z,19.16
2022-10-18T12:47:26.175Z,19.10
2022-10-18T12:50:02.097Z,19.03
2022-10-18T12:52:33.700Z,19.01
2022-10-18T12:55:20.848Z,18.94
2022-10-18T12:57:53.656Z,18.85
2022-10-18T13:00:32.936Z,18.81
2022-10-18T13:03:25.588Z,18.71
2022-10-18T13:05:54.301Z,18.70
2022-10-18T13:08:28.365Z,18.59
2022-10-18T13:11:10.408Z,18.54
2022-10-18T13:13:46.850Z,18.48
2022-10-18T13:16:23.003Z,18.46
2022-10-18T13:19:00.042Z,18.40
2022-10-18T13:21:29.645Z,18.31
2022-10-18T13:24:03.059Z,18.33
2022-10-18T13:26:39.067Z,18.32
2022-10-18T13:29:44.783Z,18.21
2022-10-18T13:32:45.080Z,18.03
2022-10-18T13:35:46.203Z,17.92
2022-10-18T13:38:34.535Z,17.89
2022-10-18T13:41:14.010Z,17.87
2022-10-18T13:43:53.354Z,17.89
2022-10-18T13:46:22.487Z,17.85
2022-10-18T13:48:55.305Z,17.83
2022-10-18T13:51:43.763Z,17.75
2022-10-18T13:54:44.332Z,17.70
2022-10-18T13:57:21.378Z,17.68
2022-10-18T14:00:09.758Z,17.68
2022-10-18T14:03:22.254Z,17.62
2022-10-18T14:06:03.276Z,17.51
2022-10-18T14:08:37.174Z,17.46
2022-10-18T14:11:48.753Z,17.36
2022-10-18T14:14:34.505Z,17.24
2022-10-18T14:17:36.463Z,17.23
2022-10-18T14:20:28.627Z,17.14
2022-10-18T14:23:24.064Z,17.11
2022-10-18T14:25:51.098Z,17.15
2022-10-18T14:28:21.717Z,17.06
2022-10-18T14:31:02.360Z,16.99
2022-10-18T14:33:41.534Z,16.95
2022-10-18T14:36:41.443Z,16.91
2022-10-18T14:39:20.763Z,16.90
2022-10-18T14:41:50.211Z,16.80
2022-10-18T14:44:18.824Z,16.89
2022-10-18T14:46:48.596Z,16.71
2022-10-18T14:49:17.504Z,16.54
2022-10-18T14:51:49.336Z,16.41
2022-10-18T14:54:26.121Z,16.29
2022-10-18T14:56:59.769Z,16.10
2022-10-18T14:59:34.241Z,15.84
2022-10-18T15:02:14.931Z,15.66
2022-10-18T15:04:45.405Z,15.48
2022-10-18T15:07:23.681Z,15.22
2022-10-18T15:10:03.396Z,15.06
2022-10-18T15:12:36.856Z,14.80
2022-10-18T15:15:21.416Z,14.58
2022-10-18T15:17:50.282Z,14.40
2022-10-18T15:20:28.916Z,14.15
2022-10-18T15:23:23.135Z,13.93
2022-10-18T15:25:52.857Z,13.69
2022-10-18T15:28:50.265Z,13.51
2022-10-18T15:31:23.185Z,13.31
2022-10-18T15:33:50.905Z,13.08
2022-10-18T15:36:28.404Z,12.85
2022-10-18T15:39:07.608Z,12.65
2022-10-18T15:41:40.714Z,12.47
2022-10-18T15:44:21.010Z,12.29
2022-10-18T15:46:49.613Z,12.10
2022-10-18T15:49:48.551Z,11.92
2022-10-18T15:52:38.599Z,11.66
2022-10-18T15:55:46.344Z,11.43
2022-10-18T15:58:47.801Z,11.22
2022-10-18T16:01:19.566Z,11.04
2022-10-18T16:03:48.527Z,10.92
2022-10-18T16:06:18.215Z,10.81
2022-10-18T16:08:50.370Z,10.68
2022-10-18T16:11:22.977Z,10.58
2022-10-18T16:13:51.549Z,10.45
2022-10-18T16:16:28.685Z,10.43
2022-10-18T16:19:04.557Z,10.26
2022-10-18T16:21:42.405Z,10.12
2022-10-18T16:24:22.179Z,10.04
2022-10-18T16:26:51.502Z,10.00
2022-10-18T16:29:25.127Z,9.93
2022-10-18T16:31:57.476Z,9.84
2022-10-18T16:34:27.270Z,9.76
2022-10-18T16:36:55.145Z,9.63
2022-10-18T16:39:25.844Z,9.54
2022-10-18T16:41:54.230Z,9.49
2022-10-18T16:44:21.583Z,9.40
2022-10-18T16:46:51.146Z,9.34
2022-10-18T16:49:29.339Z,9.26
2022-10-18T16:51:56.524Z,9.16
2022-10-18T16:54:23.828Z,9.13
2022-10-18T16:56:52.038Z,9.08
2022-10-18T16:59:29.416Z,9.02
2022-10-18T17:01:56.961Z,8.91
2022-10-18T17:04:25.065Z,8.84
2022-10-18T17:06:54.792Z,8.75
2022-10-18T17:09:22.366Z,8.69
2022-10-18T17:11:52.359Z,8.63
2022-10-18T17:14:19.347Z,8.61
2022-10-18T17:16:50.150Z,8.55
2022-10-18T17:19:21.911Z,8.50
2022-10-18T17:21:48.958Z,8.51
2022-10-18T17:24:16.259Z,8.49
2022-10-18T17:26:45.058Z,8.40
2022-10-18T17:29:12.289Z,8.30
2022-10-18T17:31:39.572Z,8.19
2022-10-18T17:34:07.208Z,8.14
2022-10-18T17:36:34.867Z,8.02
2022-10-18T17:39:02.521Z,7.92
2022-10-18T17:41:29.853Z,7.89
2022-10-18T17:43:57.021Z,7.89
2022-10-18T17:46:24.454Z,7.83
2022-10-18T17:48:51.554Z,7.73
2022-10-18T17:51:19.077Z,7.69
2022-10-18T17:53:46.698Z,7.69
2022-10-18T17:56:14.812Z,7.61
2022-10-18T17:58:47.134Z,7.58
2022-10-18T18:01:23.995Z,7.49
2022-10-18T18:03:56.151Z,7.47
2022-10-18T18:06:32.085Z,7.51
2022-10-18T18:09:02.114Z,7.42
2022-10-18T18:11:29.606Z,7.45
2022-10-18T18:13:57.170Z,7.45
2022-10-18T18:16:27.383Z,7.34
2022-10-18T18:18:57.421Z,7.31
2022-10-18T18:21:26.405Z,7.24
2022-10-18T18:23:54.125Z,7.20
2022-10-18T18:26:22.139Z,7.13
2022-10-18T18:28:49.516Z,7.06
2022-10-18T18:31:25.086Z,7.05
2022-10-18T18:33:58.020Z,7.03
2022-10-18T18:36:26.462Z,6.99
2022-10-18T18:38:56.901Z,6.94
2022-10-18T18:41:26.721Z,6.89
2022-10-18T18:44:05.706Z,6.91
2022-10-18T18:46:38.784Z,6.84
2022-10-18T18:49:07.589Z,6.85
2022-10-18T18:51:38.334Z,6.73
2022-10-18T18:54:06.178Z,6.63
2022-10-18T18:56:34.369Z,6.63
2022-10-18T18:59:01.584Z,6.63
2022-10-18T19:01:38.665Z,6.63
2022-10-18T19:04:07.434Z,6.53
2022-10-18T19:06:38.617Z,6.49
2022-10-18T19:09:12.391Z,6.47
2022-10-18T19:11:39.996Z,6.42
2022-10-18T19:14:08.948Z,6.39
2022-10-18T19:16:49.975Z,6.36
2022-10-18T19:19:19.647Z,6.34
2022-10-18T19:21:52.798Z,6.31
2022-10-18T19:24:22.024Z,6.29
2022-10-18T19:26:51.812Z,6.23
2022-10-18T19:29:25.002Z,6.20
2022-10-18T19:31:54.313Z,6.13
2022-10-18T19:34:23.290Z,6.13
2022-10-18T19:36:51.635Z,6.08
2022-10-18T19:39:25.400Z,6.08
2022-10-18T19:41:55.613Z,6.05
2022-10-18T19:44:23.817Z,5.94
2022-10-18T19:46:52.508Z,5.94
2022-10-18T19:49:19.544Z,5.96
2022-10-18T19:51:46.900Z,5.95
2022-10-18T19:54:16.280Z,5.94
2022-10-18T19:56:43.675Z,5.96
2022-10-18T19:59:12.820Z,5.93
2022-10-18T20:01:40.183Z,5.87
2022-10-18T20:04:08.637Z,5.77
2022-10-18T20:06:39.891Z,5.73
2022-10-18T20:09:08.276Z,5.72
2022-10-18T20:11:35.733Z,5.69
2022-10-18T20:14:03.752Z,5.69
2022-10-18T20:16:31.512Z,5.66
2022-10-18T20:18:59.347Z,5.57
2022-10-18T20:21:26.947Z,5.51
2022-10-18T20:23:55.830Z,5.43
2022-10-18T20:26:23.490Z,5.39
2022-10-18T20:28:58.115Z,5.41
2022-10-18T20:31:31.174Z,5.38
2022-10-18T20:34:00.863Z,5.41
2022-10-18T20:36:29.860Z,5.35
2022-10-18T20:38:57.683Z,5.29
2022-10-18T20:41:30.482Z,5.32
2022-10-18T20:44:03.366Z,5.30
2022-10-18T20:46:33.171Z,5.25
2022-10-18T20:49:01.576Z,5.27
2022-10-18T20:51:29.413Z,5.29
2022-10-18T20:53:57.334Z,5.18
2022-10-18T20:56:26.835Z,5.12
2022-10-18T20:58:58.192Z,5.04
2022-10-18T21:01:28.064Z,5.01
2022-10-18T21:03:58.163Z,5.03
2022-10-18T21:06:28.407Z,5.05
2022-10-18T21:08:58.731Z,5.05
2022-10-18T21:11:27.295Z,5.02
2022-10-18T21:13:56.592Z,5.00
2022-10-18T21:16:23.602Z,4.93
2022-10-18T21:19:08.844Z,4.86
2022-10-18T21:21:36.738Z,4.90
2022-10-18T21:24:07.075Z,4.90
2022-10-18T21:26:36.644Z,4.90
2022-10-18T21:29:04.785Z,4.88
2022-10-18T21:31:35.100Z,4.85
2022-10-18T21:34:04.849Z,4.78
2022-10-18T21:36:34.424Z,4.78
2022-10-18T21:39:03.328Z,4.77
2022-10-18T21:41:31.653Z,4.75
2022-10-18T21:43:58.588Z,4.76
2022-10-18T21:46:29.111Z,4.67
2022-10-18T21:48:57.527Z,4.71
2022-10-18T21:51:26.771Z,4.69
2022-10-18T21:53:57.958Z,4.64
2022-10-18T21:56:33.235Z,4.62
2022-10-18T21:59:00.972Z,4.62
2022-10-18T22:01:32.590Z,4.58
2022-10-18T22:04:02.084Z,4.55
2022-10-18T22:06:32.530Z,4.54
2022-10-18T22:09:02.454Z,4.49
2022-10-18T22:11:35.676Z,4.35
2022-10-18T22:14:02.570Z,4.33
2022-10-18T22:16:29.773Z,4.26
2022-10-18T22:19:01.863Z,4.31
2022-10-18T22:21:29.735Z,4.30
2022-10-18T22:23:58.285Z,4.29
2022-10-18T22:26:31.149Z,4.27
2022-10-18T22:29:10.330Z,4.26
2022-10-18T22:31:40.166Z,4.20
2022-10-18T22:34:11.549Z,4.20
2022-10-18T22:36:38.794Z,4.13
2022-10-18T22:39:06.313Z,4.08
2022-10-18T22:41:34.611Z,4.08
2022-10-18T22:44:04.509Z,4.07
2022-10-18T22:46:32.769Z,4.03
2022-10-18T22:49:00.097Z,4.02
2022-10-18T22:51:27.763Z,3.96
2022-10-18T22:53:54.871Z,3.96
2022-10-18T22:56:23.115Z,3.92
2022-10-18T22:58:50.765Z,3.91
2022-10-18T23:01:21.174Z,3.88
2022-10-18T23:03:56.698Z,3.84
2022-10-18T23:06:27.106Z,3.78
2022-10-18T23:08:55.837Z,3.79
2022-10-18T23:11:24.060Z,3.77
2022-10-18T23:13:51.678Z,3.75
2022-10-18T23:16:19.119Z,3.73
2022-10-18T23:18:53.016Z,3.68
2022-10-18T23:21:21.017Z,3.72
2022-10-18T23:23:47.781Z,3.72
2022-10-18T23:26:17.516Z,3.64
2022-10-18T23:28:47.119Z,3.67
2022-10-18T23:31:20.535Z,3.66
2022-10-18T23:33:49.429Z,3.64
2022-10-18T23:36:16.931Z,3.59
2022-10-18T23:38:44.857Z,3.51
2022-10-18T23:41:13.393Z,3.47
2022-10-18T23:43:41.867Z,3.53
2022-10-18T23:46:10.036Z,3.51
2022-10-18T23:48:37.061Z,3.51
2022-10-18T23:51:04.734Z,3.40
2022-10-18T23:53:32.109Z,3.34
2022-10-18T23:56:05.397Z,3.30
2022-10-18T23:58:34.396Z,3.30
